createdAt,value
2023-04-15T00:01:51.650Z,90826.81
2023-04-15T00:04:18.501Z,90823.94
2023-04-15T00:06:51.894Z,90821.50
2023-04-15T00:09:19.511Z,90825.81
2023-04-15T00:11:46.383Z,90821.72
2023-04-15T00:14:13.479Z,90831.44
2023-04-15T00:16:40.086Z,90830.34
2023-04-15T00:19:06.770Z,90832.47
2023-04-15T00:21:33.552Z,90823.31
2023-04-15T00:24:00.281Z,90838.38
2023-04-15T00:26:27.108Z,90837.75
2023-04-15T00:28:53.914Z,90837.75
2023-04-15T00:31:21.003Z,90846.44
2023-04-15T00:33:47.944Z,90831.31
2023-04-15T00:36:14.709Z,90845.03
2023-04-15T00:38:41.478Z,90845.06
2023-04-15T00:41:09.103Z,90840.91
2023-04-15T00:43:35.775Z,90845.84
2023-04-15T00:46:04.886Z,90839.88
2023-04-15T00:48:32.309Z,90846.09
2023-04-15T00:50:59.232Z,90841.25
2023-04-15T00:53:25.883Z,90834.59
2023-04-15T00:55:52.530Z,90830.97
2023-04-15T00:58:19.269Z,90823.78
2023-04-15T01:00:46.193Z,90827.09
2023-04-15T01:03:12.939Z,90836.88
2023-04-15T01:05:39.732Z,90851.94
2023-04-15T01:08:06.425Z,90849.84
2023-04-15T01:10:33.356Z,90858.13
2023-04-15T01:13:00.200Z,90845.84
2023-04-15T01:15:27.619Z,90848.56
2023-04-15T01:17:54.340Z,90844.47
2023-04-15T01:20:22.262Z,90841.03
2023-04-15T01:22:49.468Z,90850.72
2023-04-15T01:25:20.388Z,90847.22
2023-04-15T01:27:47.666Z,90860.03
2023-04-15T01:30:14.315Z,90849.53
2023-04-15T01:32:41.027Z,90855.06
2023-04-15T01:35:08.934Z,90852.97
2023-04-15T01:37:35.954Z,90854.28
2023-04-15T01:40:03.446Z,90848.59
2023-04-15T01:42:30.071Z,90856.47
2023-04-15T01:44:57.118Z,90855.31
2023-04-15T01:47:23.747Z,90853.47
2023-04-15T01:49:50.524Z,90847.25
2023-04-15T01:52:17.226Z,90846.75
2023-04-15T01:54:43.936Z,90857.13
2023-04-15T01:57:10.565Z,90858.66
2023-04-15T01:59:37.352Z,90857.56
2023-04-15T02:02:04.576Z,90850.31
2023-04-15T02:04:31.786Z,90854.81
2023-04-15T02:06:58.474Z,90853.06
2023-04-15T02:09:25.100Z,90851.88
2023-04-15T02:11:53.710Z,90849.22
2023-04-15T02:14:20.411Z,90840.28
2023-04-15T02:16:47.010Z,90856.53
2023-04-15T02:19:14.076Z,90865.19
2023-04-15T02:21:40.741Z,90864.41
2023-04-15T02:24:07.534Z,90853.25
2023-04-15T02:26:34.171Z,90848.69
2023-04-15T02:29:01.148Z,90839.25
2023-04-15T02:31:28.152Z,90844.41
2023-04-15T02:33:55.038Z,90842.03
2023-04-15T02:36:21.678Z,90837.13
2023-04-15T02:38:48.322Z,90840.88
2023-04-15T02:41:15.045Z,90847.22
2023-04-15T02:43:41.693Z,90847.50
2023-04-15T02:46:08.564Z,90848.69
2023-04-15T02:48:35.320Z,90842.53
2023-04-15T02:51:20.934Z,90845.28
2023-04-15T02:53:48.583Z,90842.16
2023-04-15T02:56:15.978Z,90839.81
2023-04-15T02:58:43.634Z,90837.00
2023-04-15T03:01:10.460Z,90833.78
2023-04-15T03:03:37.272Z,90839.16
2023-04-15T03:06:04.004Z,90835.44
2023-04-15T03:08:30.681Z,90845.03
2023-04-15T03:11:00.732Z,90843.56
2023-04-15T03:13:27.396Z,90844.16
2023-04-15T03:15:54.374Z,90838.84
2023-04-15T03:18:21.598Z,90840.53
2023-04-15T03:20:48.270Z,90838.03
2023-04-15T03:23:14.960Z,90845.31
2023-04-15T03:25:41.731Z,90853.28
2023-04-15T03:28:08.476Z,90844.00
2023-04-15T03:30:35.080Z,90846.34
2023-04-15T03:33:01.847Z,90845.09
2023-04-15T03:35:28.587Z,90845.31
2023-04-15T03:37:55.611Z,90845.75
2023-04-15T03:40:22.648Z,90846.31
2023-04-15T03:42:49.390Z,90854.50
2023-04-15T03:45:16.143Z,90855.19
2023-04-15T03:47:43.073Z,90858.19
2023-04-15T03:50:10.158Z,90867.19
2023-04-15T03:52:36.761Z,90864.09
2023-04-15T03:55:03.488Z,90871.22
2023-04-15T03:57:30.268Z,90862.59
2023-04-15T03:59:56.976Z,90869.59
2023-04-15T04:02:23.866Z,90868.31
2023-04-15T04:04:50.896Z,90873.22
2023-04-15T04:07:18.208Z,90878.09
2023-04-15T04:09:46.198Z,90880.16
2023-04-15T04:12:13.955Z,90883.78
2023-04-15T04:14:40.799Z,90887.34
2023-04-15T04:17:07.519Z,90887.34
2023-04-15T04:19:34.328Z,90889.25
2023-04-15T04:22:01.108Z,90892.41
2023-04-15T04:24:27.768Z,90897.91
2023-04-15T04:26:54.529Z,90901.06
2023-04-15T04:29:21.446Z,90907.25
2023-04-15T04:31:48.781Z,90905.03
2023-04-15T04:34:16.230Z,90908.59
2023-04-15T04:36:42.838Z,90908.78
2023-04-15T04:39:09.500Z,90903.00
2023-04-15T04:41:36.314Z,90907.50
2023-04-15T04:44:03.698Z,90900.28
2023-04-15T04:46:30.321Z,90906.97
2023-04-15T04:48:56.947Z,90914.50
2023-04-15T04:51:23.675Z,90902.94
2023-04-15T04:53:50.500Z,90910.28
2023-04-15T04:56:17.247Z,90908.56
2023-04-15T04:58:43.882Z,90908.41
2023-04-15T05:01:10.654Z,90909.28
2023-04-15T05:03:38.219Z,90909.28
2023-04-15T05:06:07.389Z,90904.88
2023-04-15T05:08:33.991Z,90907.41
2023-04-15T05:11:00.668Z,90910.47
2023-04-15T05:13:27.390Z,90914.16
2023-04-15T05:15:54.135Z,90919.28
2023-04-15T05:18:21.036Z,90923.34
2023-04-15T05:20:47.826Z,90921.03
2023-04-15T05:23:14.519Z,90917.75
2023-04-15T05:25:41.437Z,90924.91
2023-04-15T05:28:08.091Z,90934.97
2023-04-15T05:30:34.682Z,90927.56
2023-04-15T05:33:01.967Z,90928.09
2023-04-15T05:35:28.759Z,90925.97
2023-04-15T05:37:55.947Z,90925.31
2023-04-15T05:40:22.987Z,90930.47
2023-04-15T05:42:49.645Z,90934.19
2023-04-15T05:45:16.416Z,90934.44
2023-04-15T05:47:43.258Z,90939.91
2023-04-15T05:50:10.428Z,90929.31
2023-04-15T05:52:37.123Z,90928.75
2023-04-15T05:55:04.029Z,90942.25
2023-04-15T05:57:30.956Z,90940.00
2023-04-15T05:59:57.984Z,90937.91
2023-04-15T06:02:24.749Z,90946.16
2023-04-15T06:04:51.555Z,90939.88
2023-04-15T06:07:18.230Z,90937.34
2023-04-15T06:09:44.967Z,90940.25
2023-04-15T06:12:13.117Z,90943.66
2023-04-15T06:14:40.618Z,90937.81
2023-04-15T06:17:07.667Z,90937.50
2023-04-15T06:19:36.222Z,90930.59
2023-04-15T06:22:03.216Z,90944.56
2023-04-15T06:24:29.787Z,90938.81
2023-04-15T06:26:57.666Z,90937.50
2023-04-15T06:29:24.355Z,90947.03
2023-04-15T06:31:51.361Z,90953.34
2023-04-15T06:34:18.036Z,90948.56
2023-04-15T06:36:44.618Z,90945.81
2023-04-15T06:39:11.311Z,90953.97
2023-04-15T06:41:37.979Z,90959.84
2023-04-15T06:44:04.912Z,90949.81
2023-04-15T06:46:31.606Z,90964.78
2023-04-15T06:48:58.216Z,90963.53
2023-04-15T06:51:26.615Z,90967.25
2023-04-15T06:53:54.104Z,90970.78
2023-04-15T06:56:20.799Z,90979.41
2023-04-15T06:58:47.448Z,90982.66
2023-04-15T07:01:14.391Z,90977.25
2023-04-15T07:03:42.012Z,90982.03
2023-04-15T07:06:09.492Z,90983.59
2023-04-15T07:08:36.286Z,90978.78
2023-04-15T07:11:02.886Z,90981.06
2023-04-15T07:13:31.516Z,90979.38
2023-04-15T07:15:58.577Z,90988.88
2023-04-15T07:18:25.603Z,90988.13
2023-04-15T07:20:52.709Z,91001.06
2023-04-15T07:23:19.396Z,90991.69
2023-04-15T07:25:46.115Z,91011.69
2023-04-15T07:28:12.810Z,90999.53
2023-04-15T07:30:39.585Z,91003.47
2023-04-15T07:33:06.331Z,90994.44
2023-04-15T07:35:33.368Z,91008.09
2023-04-15T07:38:00.086Z,91001.59
2023-04-15T07:40:26.743Z,91013.00
2023-04-15T07:42:53.418Z,91009.19
2023-04-15T07:45:20.165Z,91016.72
2023-04-15T07:47:47.003Z,91016.13
2023-04-15T07:50:13.689Z,91019.22
2023-04-15T07:52:40.444Z,91017.13
2023-04-15T07:55:08.511Z,91016.91
2023-04-15T07:57:37.820Z,91011.94
2023-04-15T08:00:05.856Z,91017.47
2023-04-15T08:02:32.776Z,91013.78
2023-04-15T08:04:59.903Z,91022.41
2023-04-15T08:07:27.427Z,91031.94
2023-04-15T08:09:54.167Z,91028.13
2023-04-15T08:12:20.820Z,91032.53
2023-04-15T08:14:47.530Z,91023.16
2023-04-15T08:17:14.161Z,91021.81
2023-04-15T08:19:40.963Z,91033.22
2023-04-15T08:22:15.362Z,91022.31
2023-04-15T08:24:44.667Z,91018.13
2023-04-15T08:27:11.433Z,91029.78
2023-04-15T08:29:38.579Z,91032.34
2023-04-15T08:32:06.036Z,91031.16
2023-04-15T08:34:32.734Z,91029.78
2023-04-15T08:36:59.407Z,91026.38
2023-04-15T08:39:26.362Z,91034.06
2023-04-15T08:42:00.477Z,91036.75
2023-04-15T08:44:29.572Z,91019.78
2023-04-15T08:46:57.200Z,91018.25
2023-04-15T08:49:24.029Z,91016.81
2023-04-15T08:51:50.711Z,91015.97
2023-04-15T08:54:17.348Z,90990.16
2023-04-15T08:56:43.892Z,91019.94
2023-04-15T08:59:11.361Z,91009.31
2023-04-15T09:01:38.389Z,91017.25
2023-04-15T09:04:07.984Z,91016.06
2023-04-15T09:06:34.880Z,91010.13
2023-04-15T09:09:01.708Z,91017.72
2023-04-15T09:11:30.836Z,91016.13
2023-04-15T09:13:57.670Z,91020.50
2023-04-15T09:16:24.641Z,91017.75
2023-04-15T09:18:51.441Z,91015.88
2023-04-15T09:21:18.354Z,91006.44
2023-04-15T09:23:57.167Z,91015.00
2023-04-15T09:26:36.495Z,91014.97
2023-04-15T09:29:09.370Z,91019.09
2023-04-15T09:31:39.245Z,91019.72
2023-04-15T09:34:06.260Z,91025.06
2023-04-15T09:36:48.083Z,91030.41
2023-04-15T09:39:16.108Z,91021.97
2023-04-15T09:41:43.817Z,91017.44
2023-04-15T09:44:26.391Z,91011.63
2023-04-15T09:46:53.087Z,91005.66
2023-04-15T09:49:20.895Z,91017.38
2023-04-15T09:52:01.323Z,91009.22
2023-04-15T09:54:35.138Z,91006.09
2023-04-15T09:57:10.844Z,90989.38
2023-04-15T09:59:37.559Z,90982.41
2023-04-15T10:02:05.344Z,90979.72
2023-04-15T10:04:33.137Z,90982.78
2023-04-15T10:06:59.864Z,90973.72
2023-04-15T10:09:26.851Z,90966.41
2023-04-15T10:11:53.505Z,90962.38
2023-04-15T10:14:20.200Z,90964.31
2023-04-15T10:16:48.957Z,90965.16
2023-04-15T10:19:16.503Z,90962.59
2023-04-15T10:21:45.138Z,90970.66
2023-04-15T10:24:12.071Z,90968.03
2023-04-15T10:26:38.739Z,90970.97
2023-04-15T10:29:05.401Z,90958.25
2023-04-15T10:31:32.048Z,90964.28
2023-04-15T10:33:59.152Z,90965.22
2023-04-15T10:36:26.061Z,90953.81
2023-04-15T10:38:52.716Z,90958.00
2023-04-15T10:41:26.865Z,90951.75
2023-04-15T10:43:55.000Z,90947.03
2023-04-15T10:46:22.348Z,90953.41
2023-04-15T10:48:52.756Z,90946.31
2023-04-15T10:51:30.292Z,90954.66
2023-04-15T10:53:58.849Z,90954.75
2023-04-15T10:56:25.759Z,90955.75
2023-04-15T10:58:52.629Z,90954.41
2023-04-15T11:01:23.382Z,90950.75
2023-04-15T11:03:51.822Z,90942.94
2023-04-15T11:06:18.621Z,90944.81
2023-04-15T11:09:05.933Z,90947.41
2023-04-15T11:12:05.066Z,90958.03
2023-04-15T11:14:34.018Z,90956.03
2023-04-15T11:17:00.672Z,90959.59
2023-04-15T11:19:27.485Z,90962.06
2023-04-15T11:21:54.201Z,90954.44
2023-04-15T11:24:27.255Z,90960.81
2023-04-15T11:26:59.907Z,90955.25
2023-04-15T11:29:32.903Z,90964.47
2023-04-15T11:32:07.693Z,90950.72
2023-04-15T11:34:36.240Z,90954.13
2023-04-15T11:37:06.534Z,90952.69
2023-04-15T11:39:33.332Z,90961.06
2023-04-15T11:41:59.926Z,90962.66
2023-04-15T11:44:26.536Z,90956.47
2023-04-15T11:46:54.758Z,90959.25
2023-04-15T11:49:31.534Z,90960.28
2023-04-15T11:51:58.366Z,90954.13
2023-04-15T11:54:24.998Z,90947.88
2023-04-15T11:56:52.464Z,90948.34
2023-04-15T11:59:19.144Z,90949.19
2023-04-15T12:01:47.732Z,90944.41
2023-04-15T12:04:16.456Z,90952.94
2023-04-15T12:06:43.411Z,90942.09
2023-04-15T12:09:13.853Z,90942.16
2023-04-15T12:11:47.520Z,90947.97
2023-04-15T12:14:26.062Z,90954.47
2023-04-15T12:16:54.209Z,90955.25
2023-04-15T12:19:28.780Z,90948.53
2023-04-15T12:22:03.467Z,90950.84
2023-04-15T12:24:33.497Z,90952.84
2023-04-15T12:27:18.299Z,90953.78
2023-04-15T12:29:45.009Z,90961.44
2023-04-15T12:32:11.882Z,90957.94
2023-04-15T12:34:45.660Z,90964.47
2023-04-15T12:37:13.247Z,90959.69
2023-04-15T12:39:41.478Z,90967.34
2023-04-15T12:42:08.364Z,90968.88
2023-04-15T12:44:35.801Z,90970.31
2023-04-15T12:47:03.231Z,90964.75
2023-04-15T12:49:30.608Z,90970.53
2023-04-15T12:51:57.916Z,90978.88
2023-04-15T12:54:24.585Z,90961.44
2023-04-15T12:56:51.315Z,90971.53
2023-04-15T12:59:18.695Z,90957.09
2023-04-15T13:01:46.654Z,90972.41
2023-04-15T13:04:13.696Z,90970.03
2023-04-15T13:06:40.508Z,90971.16
2023-04-15T13:09:07.317Z,90979.22
2023-04-15T13:11:34.212Z,90970.66
2023-04-15T13:14:01.922Z,90964.91
2023-04-15T13:16:28.761Z,90959.34
2023-04-15T13:18:55.545Z,90952.94
2023-04-15T13:21:22.253Z,90949.81
2023-04-15T13:23:49.836Z,90961.00
2023-04-15T13:26:17.926Z,90946.63
2023-04-15T13:28:44.564Z,90947.91
2023-04-15T13:31:11.354Z,90948.97
2023-04-15T13:33:38.119Z,90949.44
2023-04-15T13:36:04.805Z,90940.25
2023-04-15T13:38:31.364Z,90941.41
2023-04-15T13:40:58.251Z,90948.56
2023-04-15T13:43:24.929Z,90938.41
2023-04-15T13:45:51.908Z,90938.72
2023-04-15T13:48:18.561Z,90943.81
2023-04-15T13:50:45.807Z,90936.13
2023-04-15T13:53:13.156Z,90952.56
2023-04-15T13:55:42.562Z,90944.84
2023-04-15T13:58:09.889Z,90944.94
2023-04-15T14:00:36.551Z,90941.41
2023-04-15T14:03:03.488Z,90942.28
2023-04-15T14:05:30.363Z,90945.16
2023-04-15T14:07:56.995Z,90938.13
2023-04-15T14:10:23.648Z,90947.94
2023-04-15T14:12:50.258Z,90944.97
2023-04-15T14:15:16.997Z,90945.91
2023-04-15T14:17:43.692Z,90936.34
2023-04-15T14:20:10.661Z,90939.72
2023-04-15T14:22:37.249Z,90943.72
2023-04-15T14:25:04.891Z,90943.94
2023-04-15T14:27:31.553Z,90944.59
2023-04-15T14:29:58.974Z,90947.94
2023-04-15T14:32:26.402Z,90953.50
2023-04-15T14:34:53.074Z,90939.22
2023-04-15T14:37:19.857Z,90946.72
2023-04-15T14:39:46.581Z,90943.81
2023-04-15T14:42:13.169Z,90936.66
2023-04-15T14:44:39.750Z,90947.47
2023-04-15T14:47:06.397Z,90942.16
2023-04-15T14:49:32.993Z,90935.34
2023-04-15T14:51:59.694Z,90940.63
2023-04-15T14:54:26.332Z,90934.09
2023-04-15T14:56:53.046Z,90941.94
2023-04-15T14:59:19.654Z,90932.22
2023-04-15T15:01:46.718Z,90941.59
2023-04-15T15:04:13.680Z,90933.81
2023-04-15T15:06:41.928Z,90929.16
2023-04-15T15:09:08.576Z,90933.31
2023-04-15T15:11:35.277Z,90945.31
2023-04-15T15:14:01.982Z,90931.47
2023-04-15T15:16:29.412Z,90934.31
2023-04-15T15:18:56.262Z,90928.22
2023-04-15T15:21:22.984Z,90933.06
2023-04-15T15:23:50.944Z,90927.19
2023-04-15T15:26:19.340Z,90934.25
2023-04-15T15:28:46.147Z,90931.66
2023-04-15T15:31:12.856Z,90926.66
2023-04-15T15:33:39.790Z,90925.28
2023-04-15T15:36:06.721Z,90922.88
2023-04-15T15:38:33.402Z,90929.13
2023-04-15T15:41:00.179Z,90930.34
2023-04-15T15:43:26.794Z,90929.78
2023-04-15T15:45:55.551Z,90926.97
2023-04-15T15:48:23.609Z,90929.97
2023-04-15T15:50:50.276Z,90933.06
2023-04-15T15:53:20.878Z,90930.47
2023-04-15T15:55:48.344Z,90933.00
2023-04-15T15:58:15.333Z,90932.38
2023-04-15T16:00:42.612Z,90932.28
2023-04-15T16:03:09.416Z,90934.09
2023-04-15T16:05:36.541Z,90934.19
2023-04-15T16:08:03.486Z,90924.75
2023-04-15T16:10:30.514Z,90928.16
2023-04-15T16:12:57.293Z,90930.53
2023-04-15T16:15:25.388Z,90942.19
2023-04-15T16:17:52.251Z,90933.81
2023-04-15T16:20:19.197Z,90940.06
2023-04-15T16:22:46.472Z,90938.91
2023-04-15T16:25:13.278Z,90931.00
2023-04-15T16:27:57.126Z,90941.09
2023-04-15T16:30:26.038Z,90932.66
2023-04-15T16:32:52.945Z,90934.19
2023-04-15T16:35:20.062Z,90928.66
2023-04-15T16:38:07.146Z,90927.91
2023-04-15T16:40:33.833Z,90931.06
2023-04-15T16:43:00.668Z,90931.91
2023-04-15T16:45:27.391Z,90935.03
2023-04-15T16:47:54.304Z,90939.47
2023-04-15T16:50:21.058Z,90952.56
2023-04-15T16:52:47.737Z,90944.22
2023-04-15T16:55:14.433Z,90932.53
2023-04-15T16:58:02.280Z,90937.13
2023-04-15T17:03:26.002Z,90941.41
2023-04-15T17:05:52.666Z,90937.31
2023-04-15T17:08:19.409Z,90941.91
2023-04-15T17:10:46.060Z,90951.91
2023-04-15T17:13:12.734Z,90950.91
2023-04-15T17:15:41.091Z,90960.41
2023-04-15T17:18:08.676Z,90958.38
2023-04-15T17:20:35.292Z,90967.53
2023-04-15T17:23:01.943Z,90969.72
2023-04-15T17:25:28.739Z,90962.66
2023-04-15T17:27:55.444Z,90972.41
2023-04-15T17:30:22.980Z,90969.25
2023-04-15T17:32:49.748Z,90977.81
2023-04-15T17:35:16.517Z,90982.19
2023-04-15T17:37:43.140Z,90994.06
2023-04-15T17:40:10.342Z,90996.31
2023-04-15T17:42:36.910Z,90997.59
2023-04-15T17:45:03.738Z,91004.75
2023-04-15T17:47:30.450Z,91008.38
2023-04-15T17:49:57.058Z,91012.31
2023-04-15T17:52:23.679Z,91008.59
2023-04-15T17:54:50.373Z,91014.75
2023-04-15T17:57:17.089Z,91018.44
2023-04-15T17:59:45.095Z,91026.56
2023-04-15T18:02:11.970Z,91032.28
2023-04-15T18:04:39.187Z,91026.53
2023-04-15T18:07:05.955Z,91037.06
2023-04-15T18:09:32.688Z,91046.88
2023-04-15T18:11:59.483Z,91043.25
2023-04-15T18:14:34.139Z,91044.53
2023-04-15T18:17:02.580Z,91055.41
2023-04-15T18:19:30.242Z,91045.72
2023-04-15T18:21:56.940Z,91049.88
2023-04-15T18:24:23.695Z,91059.03
2023-04-15T18:26:50.406Z,91058.16
2023-04-15T18:29:18.585Z,91065.78
2023-04-15T18:31:45.306Z,91065.28
2023-04-15T18:34:12.531Z,91059.75
2023-04-15T18:36:39.129Z,91065.78
2023-04-15T18:39:06.010Z,91072.13
2023-04-15T18:41:32.987Z,91063.06
2023-04-15T18:43:59.611Z,91071.31
2023-04-15T18:46:26.383Z,91058.50
2023-04-15T18:48:53.040Z,91068.97
2023-04-15T18:51:19.733Z,91062.19
2023-04-15T18:53:46.398Z,91056.34
2023-04-15T18:56:13.157Z,91062.19
2023-04-15T18:59:25.980Z,91063.44
2023-04-15T19:01:26.607Z,91071.91
2023-04-15T19:03:53.449Z,91071.75
2023-04-15T19:06:20.274Z,91069.25
2023-04-15T19:08:46.938Z,91075.97
2023-04-15T19:11:13.618Z,91076.06
2023-04-15T19:13:40.626Z,91064.22
2023-04-15T19:16:07.377Z,91068.34
2023-04-15T19:18:34.133Z,91058.94
2023-04-15T19:21:00.980Z,91062.28
2023-04-15T19:23:27.623Z,91071.81
2023-04-15T19:25:54.226Z,91067.56
2023-04-15T19:28:20.880Z,91059.63
2023-04-15T19:30:47.557Z,91068.06
2023-04-15T19:33:14.235Z,91073.66
2023-04-15T19:35:41.039Z,91073.44
2023-04-15T19:38:07.794Z,91075.44
2023-04-15T19:40:34.367Z,91069.75
2023-04-15T19:43:01.099Z,91064.09
2023-04-15T19:45:27.760Z,91071.75
2023-04-15T19:47:54.516Z,91059.63
2023-04-15T19:50:25.908Z,91074.06
2023-04-15T19:52:53.024Z,91066.41
2023-04-15T19:55:19.937Z,91067.13
2023-04-15T19:57:46.974Z,91070.03
2023-04-15T20:00:13.801Z,91063.19
2023-04-15T20:02:40.551Z,91064.06
2023-04-15T20:05:09.949Z,91060.53
2023-04-15T20:07:36.742Z,91058.47
2023-04-15T20:10:03.610Z,91058.56
2023-04-15T20:12:49.277Z,91057.50
2023-04-15T20:15:19.378Z,91068.19
2023-04-15T20:17:46.175Z,91072.16
2023-04-15T20:20:12.998Z,91076.63
2023-04-15T20:22:39.647Z,91076.03
2023-04-15T20:25:06.811Z,91079.91
2023-04-15T20:27:33.495Z,91083.81
2023-04-15T20:30:00.471Z,91091.22
2023-04-15T20:32:28.402Z,91094.13
2023-04-15T20:34:55.221Z,91090.88
2023-04-15T20:37:22.484Z,91079.56
2023-04-15T20:39:49.247Z,91089.78
2023-04-15T20:42:16.205Z,91080.13
2023-04-15T20:44:42.867Z,91084.53
2023-04-15T20:47:09.649Z,91091.59
2023-04-15T20:49:37.401Z,91094.75
2023-04-15T20:52:04.687Z,91098.50
2023-04-15T20:54:31.516Z,91093.59
2023-04-15T20:56:58.222Z,91095.03
2023-04-15T20:59:25.313Z,91091.88
2023-04-15T21:01:52.132Z,91091.19
2023-04-15T21:04:19.201Z,91087.13
2023-04-15T21:06:45.861Z,91087.84
2023-04-15T21:09:12.620Z,91087.50
2023-04-15T21:11:57.512Z,91092.34
2023-04-15T21:14:26.001Z,91094.00
2023-04-15T21:16:52.654Z,91095.44
2023-04-15T21:19:19.405Z,91086.34
2023-04-15T21:21:46.189Z,91095.47
2023-04-15T21:24:12.812Z,91099.00
2023-04-15T21:26:39.464Z,91096.78
2023-04-15T21:29:08.617Z,91092.72
2023-04-15T21:31:37.284Z,91094.63
2023-04-15T21:34:04.162Z,91099.56
2023-04-15T21:36:31.720Z,91104.38
2023-04-15T21:38:58.453Z,91095.41
2023-04-15T21:41:25.442Z,91102.06
2023-04-15T21:43:53.067Z,91095.34
2023-04-15T21:46:23.203Z,91094.84
2023-04-15T21:48:53.217Z,91093.38
2023-04-15T21:51:19.989Z,91102.47
2023-04-15T21:53:46.606Z,91098.38
2023-04-15T21:56:13.245Z,91109.22
2023-04-15T21:58:39.860Z,91102.81
2023-04-15T22:01:06.627Z,91102.59
2023-04-15T22:03:34.400Z,91099.84
2023-04-15T22:06:04.340Z,91095.06
2023-04-15T22:08:41.732Z,91096.03
2023-04-15T22:11:21.032Z,91100.16
2023-04-15T22:13:47.689Z,91099.28
2023-04-15T22:16:14.424Z,91104.53
2023-04-15T22:18:41.066Z,91102.41
2023-04-15T22:21:08.012Z,91091.38
2023-04-15T22:23:34.748Z,91102.13
2023-04-15T22:26:01.604Z,91088.81
2023-04-15T22:28:28.310Z,91095.97
2023-04-15T22:30:54.982Z,91087.22
2023-04-15T22:33:21.711Z,91091.41
2023-04-15T22:35:48.431Z,91088.41
2023-04-15T22:38:15.049Z,91087.75
2023-04-15T22:40:42.172Z,91087.44
2023-04-15T22:43:08.877Z,91077.91
2023-04-15T22:45:35.736Z,91081.97
2023-04-15T22:48:02.648Z,91087.44
2023-04-15T22:50:29.379Z,91080.94
2023-04-15T22:52:55.984Z,91090.75
2023-04-15T22:55:22.719Z,91095.81
2023-04-15T22:57:49.330Z,91094.25
2023-04-15T23:00:16.014Z,91093.59
2023-04-15T23:02:42.721Z,91103.13
2023-04-15T23:05:13.394Z,91094.94
2023-04-15T23:07:40.391Z,91097.69
2023-04-15T23:10:08.113Z,91100.22
2023-04-15T23:12:34.956Z,91100.22
2023-04-15T23:15:01.731Z,91097.03
2023-04-15T23:17:28.437Z,91096.25
2023-04-15T23:19:55.080Z,91108.88
2023-04-15T23:22:21.817Z,91093.53
2023-04-15T23:24:48.381Z,91095.00
2023-04-15T23:27:15.287Z,91109.44
2023-04-15T23:29:42.113Z,91093.41
2023-04-15T23:32:08.808Z,91099.06
2023-04-15T23:34:35.428Z,91091.41
2023-04-15T23:37:02.098Z,91097.84
2023-04-15T23:39:30.203Z,91092.19
2023-04-15T23:41:57.537Z,91089.50
2023-04-15T23:44:24.289Z,91079.66
2023-04-15T23:46:51.445Z,91096.34
2023-04-15T23:49:20.205Z,91083.59
2023-04-15T23:51:47.235Z,91081.78
2023-04-15T23:54:14.511Z,91083.38
2023-04-15T23:56:41.237Z,91078.03
2023-04-15T23:59:08.243Z,91082.97
